Time;durP1;ratioP1;P1;durP2;ratioP2;P2;SDS_P1;SDS_P2;PMS_P1;PMS_P2;Temp;Humidity;BMP_temperature;BMP_pressure;BME280_temperature;BME280_humidity;BME280_pressure;Samples;Min_cycle;Max_cycle;Signal;HPM_P1;HPM_P2
2022/03/05 00:01:54;;;;;;;20.07;14.77;;;;;;;-3.87;100.00;96788.31;5007798;28;20424;-73
2022/03/05 00:04:24;;;;;;;20.83;15.67;;;;;;;-4.15;100.00;96746.81;5021821;28;20473;-74
2022/03/05 00:06:52;;;;;;;15.83;13.43;;;;;;;-3.93;100.00;96781.44;5009153;28;20470;-73
2022/03/05 00:09:19;;;;;;;16.90;14.43;;;;;;;-4.06;100.00;96760.19;5022914;28;20444;-74
2022/03/05 00:11:46;;;;;;;19.10;13.10;;;;;;;-4.18;100.00;96755.78;5000200;28;20543;-74
2022/03/05 00:14:13;;;;;;;19.90;13.50;;;;;;;-3.93;100.00;96775.47;5015562;28;20456;-74
2022/03/05 00:16:39;;;;;;;19.33;14.10;;;;;;;-4.08;100.00;96775.13;4998953;28;20472;-74
2022/03/05 00:19:06;;;;;;;19.40;14.80;;;;;;;-3.98;100.00;96783.13;5019891;28;21034;-74
2022/03/05 00:21:33;;;;;;;19.27;13.20;;;;;;;-3.99;100.00;96784.91;5019332;28;20429;-74
2022/03/05 00:24:00;;;;;;;14.33;12.67;;;;;;;-4.22;100.00;96759.03;5019923;28;20541;-75
2022/03/05 00:26:27;;;;;;;16.03;12.97;;;;;;;-4.18;100.00;96767.91;5019682;28;20444;-73
2022/03/05 00:28:53;;;;;;;23.07;14.87;;;;;;;-4.27;100.00;96787.31;5003474;28;20445;-74
2022/03/05 00:31:21;;;;;;;19.50;16.37;;;;;;;-4.50;100.00;96746.75;5016027;28;20780;-74
2022/03/05 00:33:48;;;;;;;19.10;15.10;;;;;;;-4.63;100.00;96734.81;5000786;28;20468;-74
2022/03/05 00:36:16;;;;;;;19.03;13.87;;;;;;;-4.36;100.00;96775.72;5021823;28;20477;-73
2022/03/05 00:38:43;;;;;;;18.00;12.83;;;;;;;-4.45;100.00;96775.25;5006709;28;20424;-74
2022/03/05 00:41:11;;;;;;;15.43;12.03;;;;;;;-4.48;100.00;96779.06;5022019;28;20459;-74
2022/03/05 00:43:38;;;;;;;17.10;12.20;;;;;;;-4.58;100.00;96747.84;5021228;28;20556;-73
2022/03/05 00:46:06;;;;;;;19.83;14.23;;;;;;;-4.40;100.00;96782.34;4978765;28;21048;-74
2022/03/05 00:48:33;;;;;;;25.80;13.77;;;;;;;-4.61;100.00;96750.84;4994159;28;20543;-74
2022/03/05 00:51:00;;;;;;;20.63;13.47;;;;;;;-4.50;100.00;96772.53;4991768;28;20839;-74
2022/03/05 00:53:26;;;;;;;14.00;12.60;;;;;;;-4.36;100.00;96770.56;4992718;28;20456;-74
2022/03/05 00:55:53;;;;;;;16.63;12.53;;;;;;;-4.42;100.00;96767.06;5007902;28;20449;-74
2022/03/05 00:58:20;;;;;;;16.07;13.80;;;;;;;-4.49;100.00;96745.75;5007747;28;20429;-74
2022/03/05 01:00:47;;;;;;;15.37;12.93;;;;;;;-4.31;100.00;96761.16;4991458;28;20974;-74
2022/03/05 01:03:14;;;;;;;14.30;12.80;;;;;;;-4.66;100.00;96730.09;4998279;28;20469;-74
2022/03/05 01:05:41;;;;;;;13.53;12.13;;;;;;;-4.38;100.00;96762.25;4987622;28;20453;-74
2022/03/05 01:08:09;;;;;;;12.70;11.40;;;;;;;-4.61;100.00;96725.06;4974958;28;20471;-74
2022/03/05 01:10:35;;;;;;;14.17;11.87;;;;;;;-4.45;100.00;96754.59;5007541;28;20539;-74
2022/03/05 01:13:03;;;;;;;15.13;11.43;;;;;;;-4.36;100.00;96757.66;5007525;28;20799;-74
2022/03/05 01:15:29;;;;;;;12.50;10.40;;;;;;;-4.48;100.00;96753.25;5007959;28;20437;-74
2022/03/05 01:17:57;;;;;;;15.77;12.67;;;;;;;-4.72;100.00;96737.91;4991275;28;20433;-74
2022/03/05 01:20:24;;;;;;;15.77;10.97;;;;;;;-4.79;100.00;96722.53;5007368;28;20424;-74
2022/03/05 01:22:51;;;;;;;16.07;11.90;;;;;;;-4.78;100.00;96731.84;4992477;28;20918;-74
2022/03/05 01:25:18;;;;;;;16.57;11.63;;;;;;;-4.96;100.00;96735.22;5007476;28;20434;-74
2022/03/05 01:27:45;;;;;;;14.67;12.20;;;;;;;-4.79;100.00;96763.81;4975259;28;20461;-74
2022/03/05 01:30:13;;;;;;;11.73;10.27;;;;;;;-5.03;100.00;96752.59;4991102;28;20547;-73
2022/03/05 01:32:40;;;;;;;16.83;11.73;;;;;;;-5.17;100.00;96728.75;5007441;28;20440;-73
2022/03/05 01:35:08;;;;;;;15.40;11.97;;;;;;;-4.91;100.00;96763.75;4991527;28;20465;-73
2022/03/05 01:37:35;;;;;;;15.40;10.90;;;;;;;-4.91;100.00;96753.44;4991255;28;20488;-73
2022/03/05 01:40:03;;;;;;;16.67;12.50;;;;;;;-4.90;100.00;96757.59;4992283;28;20434;-73
2022/03/05 01:42:30;;;;;;;13.63;11.10;;;;;;;-4.83;100.00;96760.84;4991215;28;20453;-73
2022/03/05 01:44:57;;;;;;;17.63;11.57;;;;;;;-5.32;100.00;96712.09;5007217;28;20467;-73
2022/03/05 01:47:24;;;;;;;19.60;12.13;;;;;;;-5.13;100.00;96726.53;5007140;28;21019;-73
2022/03/05 01:49:51;;;;;;;13.60;10.63;;;;;;;-5.09;100.00;96727.66;5007167;28;20439;-73
2022/03/05 01:52:18;;;;;;;16.30;13.00;;;;;;;-5.07;100.00;96748.88;4992205;28;20429;-73
2022/03/05 01:54:45;;;;;;;15.87;12.00;;;;;;;-5.21;100.00;96716.50;5007322;28;20499;-73
2022/03/05 01:57:12;;;;;;;16.80;11.63;;;;;;;-5.12;100.00;96746.16;5007116;28;20523;-73
2022/03/05 01:59:39;;;;;;;15.70;12.40;;;;;;;-5.21;100.00;96730.22;4992167;28;20434;-73
2022/03/05 02:02:06;;;;;;;16.73;12.70;;;;;;;-5.26;100.00;96737.78;4990903;28;20452;-73
2022/03/05 02:04:33;;;;;;;12.80;10.37;;;;;;;-5.16;100.00;96743.22;4992163;28;20818;-73
2022/03/05 02:07:00;;;;;;;18.33;12.27;;;;;;;-5.21;100.00;96750.00;5006978;28;20428;-73
2022/03/05 02:09:26;;;;;;;14.60;12.83;;;;;;;-5.18;100.00;96747.81;4990826;28;20450;-73
2022/03/05 02:11:55;;;;;;;16.60;12.43;;;;;;;-5.15;100.00;96754.31;4992021;28;21101;-73
2022/03/05 02:14:22;;;;;;;13.47;11.93;;;;;;;-5.26;100.00;96745.50;5007046;28;20466;-73
2022/03/05 02:16:49;;;;;;;13.80;11.40;;;;;;;-5.40;100.00;96747.44;5007123;28;20539;-73
2022/03/05 02:19:15;;;;;;;16.00;12.27;;;;;;;-5.34;100.00;96763.84;4992792;28;20503;-73
2022/03/05 02:21:45;;;;;;;16.73;12.50;;;;;;;-5.44;100.00;96733.44;5010657;28;20953;-73
2022/03/05 02:24:13;;;;;;;15.87;11.90;;;;;;;-5.29;100.00;96756.25;5010434;28;20523;-73
2022/03/05 02:26:39;;;;;;;24.43;13.00;;;;;;;-5.54;100.00;96734.91;5010557;28;20465;-73
2022/03/05 02:29:07;;;;;;;17.57;12.07;;;;;;;-5.38;100.00;96754.94;4994189;28;20518;-73
2022/03/05 02:31:36;;;;;;;13.50;10.83;;;;;;;-5.41;100.00;96752.81;4995349;28;20522;-73
2022/03/05 02:34:03;;;;;;;21.50;12.90;;;;;;;-5.33;100.00;96762.06;4995066;28;20510;-71
2022/03/05 02:36:30;;;;;;;17.17;12.47;;;;;;;-5.65;100.00;96723.53;5010054;28;20929;-72
2022/03/05 02:38:56;;;;;;;15.30;11.70;;;;;;;-5.64;100.00;96707.06;4993845;28;20440;-72
2022/03/05 02:41:24;;;;;;;17.07;13.33;;;;;;;-5.61;100.00;96718.72;5009985;28;20444;-73
2022/03/05 02:43:50;;;;;;;14.47;11.87;;;;;;;-5.39;100.00;96749.00;5009937;28;20471;-73
2022/03/05 02:46:17;;;;;;;15.83;10.80;;;;;;;-5.46;100.00;96726.91;4993473;28;20980;-73
2022/03/05 02:48:45;;;;;;;15.67;12.13;;;;;;;-5.59;100.00;96721.91;5009862;28;20461;-72
2022/03/05 02:51:12;;;;;;;13.07;11.00;;;;;;;-5.66;100.00;96706.50;4993781;28;20448;-72
2022/03/05 02:53:38;;;;;;;12.37;10.97;;;;;;;-5.44;100.00;96728.28;4993644;28;20453;-72
2022/03/05 02:56:05;;;;;;;13.03;10.60;;;;;;;-5.69;100.00;96712.09;4994870;28;20452;-73
2022/03/05 02:58:32;;;;;;;12.00;10.47;;;;;;;-5.47;100.00;96749.31;4993487;28;21019;-72
2022/03/05 03:00:59;;;;;;;12.73;9.87;;;;;;;-5.53;100.00;96752.72;5009853;28;20487;-72
2022/03/05 03:03:26;;;;;;;15.50;11.33;;;;;;;-5.66;100.00;96753.63;4993353;28;20460;-72
2022/03/05 03:05:53;;;;;;;16.67;11.33;;;;;;;-5.83;100.00;96739.75;4994711;28;20468;-72
2022/03/05 03:08:20;;;;;;;20.13;11.90;;;;;;;-5.94;100.00;96722.44;4993718;28;20824;-72
2022/03/05 03:10:47;;;;;;;13.80;9.77;;;;;;;-5.95;100.00;96720.88;5009647;28;20460;-72
2022/03/05 03:13:14;;;;;;;17.20;10.83;;;;;;;-5.81;100.00;96753.19;5009526;28;20527;-73
2022/03/05 03:15:41;;;;;;;11.97;10.73;;;;;;;-5.70;100.00;96752.50;5009583;28;20446;-72
2022/03/05 03:18:08;;;;;;;11.60;10.00;;;;;;;-5.85;100.00;96731.47;5009495;28;20832;-72
2022/03/05 03:20:34;;;;;;;14.20;9.97;;;;;;;-5.93;100.00;96734.31;4977218;28;20427;-72
2022/03/05 03:23:01;;;;;;;10.87;9.87;;;;;;;-5.92;100.00;96753.13;4992866;28;20440;-72
2022/03/05 03:25:28;;;;;;;12.60;9.47;;;;;;;-5.88;100.00;96749.09;5009436;28;20428;-72
2022/03/05 03:27:55;;;;;;;12.07;10.37;;;;;;;-6.21;100.00;96711.59;4992722;28;20472;-73
2022/03/05 03:30:21;;;;;;;13.47;9.97;;;;;;;-5.84;100.00;96757.97;5008811;28;20808;-73
2022/03/05 03:32:49;;;;;;;15.20;11.17;;;;;;;-5.88;100.00;96759.38;4992753;28;20807;-73
2022/03/05 03:35:17;;;;;;;13.67;10.23;;;;;;;-5.91;100.00;96755.47;5009391;28;20455;-73
2022/03/05 03:37:44;;;;;;;14.93;11.07;;;;;;;-5.80;100.00;96756.56;4976923;28;20448;-73
2022/03/05 03:40:14;;;;;;;12.60;10.50;;;;;;;-5.78;100.00;96750.19;5009205;28;20432;-73
2022/03/05 03:42:41;;;;;;;16.23;12.33;;;;;;;-5.84;100.00;96756.19;4992809;28;20445;-73
2022/03/05 03:45:09;;;;;;;17.47;10.03;;;;;;;-5.90;100.00;96735.69;4994071;28;20534;-73
2022/03/05 03:47:36;;;;;;;15.63;11.10;;;;;;;-5.84;100.00;96752.84;4992879;28;20432;-73
2022/03/05 03:50:04;;;;;;;12.67;10.00;;;;;;;-5.90;100.00;96736.47;4993976;28;20425;-73
2022/03/05 03:52:31;;;;;;;15.63;11.70;;;;;;;-5.80;100.00;96759.13;5009095;28;20441;-72
2022/03/05 03:54:59;;;;;;;12.40;10.27;;;;;;;-5.95;100.00;96749.19;5008795;28;20452;-72
2022/03/05 03:57:26;;;;;;;14.80;11.13;;;;;;;-6.08;100.00;96723.56;5009029;28;20436;-72
2022/03/05 03:59:53;;;;;;;14.50;11.60;;;;;;;-5.99;100.00;96750.63;4992831;28;20872;-72
2022/03/05 04:02:21;;;;;;;15.67;11.83;;;;;;;-6.13;100.00;96719.06;4992555;28;20438;-72
2022/03/05 04:04:49;;;;;;;20.33;14.67;;;;;;;-5.98;100.00;96758.13;5008739;28;20470;-72
2022/03/05 04:10:04;;;;;;;19.70;14.30;;;;;;;-6.11;100.00;96721.41;4993778;28;20515;-72
2022/03/05 04:12:30;;;;;;;13.30;11.23;;;;;;;-6.00;100.00;96751.63;4992247;28;20482;-72
2022/03/05 04:14:58;;;;;;;15.47;11.77;;;;;;;-6.15;100.00;96715.88;5008387;28;20492;-72
2022/03/05 04:17:24;;;;;;;16.37;11.47;;;;;;;-6.17;100.00;96737.69;5008560;28;20432;-72
2022/03/05 04:19:51;;;;;;;19.33;11.90;;;;;;;-6.27;100.00;96738.97;5008501;28;20855;-72
2022/03/05 04:22:18;;;;;;;13.40;10.07;;;;;;;-6.21;100.00;96751.97;4992416;28;20468;-72
2022/03/05 04:24:44;;;;;;;14.37;10.60;;;;;;;-6.44;100.00;96731.94;4975836;28;20461;-72
2022/03/05 04:27:11;;;;;;;16.20;11.07;;;;;;;-6.31;100.00;96748.06;4993372;28;20466;-72
2022/03/05 04:29:38;;;;;;;16.03;10.90;;;;;;;-6.89;100.00;96693.47;4993216;28;20457;-72
2022/03/05 04:32:05;;;;;;;13.97;10.43;;;;;;;-6.71;100.00;96731.31;5008081;28;20436;-72
2022/03/05 04:34:32;;;;;;;16.53;10.20;;;;;;;-6.79;100.00;96704.09;4993370;28;20539;-72
2022/03/05 04:37:00;;;;;;;14.67;10.10;;;;;;;-6.59;100.00;96761.31;5008115;28;20925;-72
2022/03/05 04:39:28;;;;;;;14.27;10.47;;;;;;;-6.56;100.00;96767.81;4991751;28;20436;-72
2022/03/05 04:41:54;;;;;;;14.57;9.30;;;;;;;-6.50;100.00;96768.78;4991253;28;20499;-73
2022/03/05 04:44:22;;;;;;;17.17;11.53;;;;;;;-6.60;100.00;96767.44;5007869;28;21103;-73
2022/03/05 04:46:49;;;;;;;13.43;10.67;;;;;;;-6.64;100.00;96768.88;4991790;28;20523;-73
2022/03/05 04:49:21;;;;;;;16.73;10.13;;;;;;;-6.63;100.00;96770.44;4992916;28;20463;-73
2022/03/05 04:51:47;;;;;;;20.27;12.80;;;;;;;-6.72;100.00;96758.03;5007929;28;20441;-73
2022/03/05 04:54:14;;;;;;;18.87;10.80;;;;;;;-6.65;100.00;96774.22;4992842;28;20820;-72
2022/03/05 04:56:41;;;;;;;11.27;9.60;;;;;;;-7.05;100.00;96699.09;5008179;28;20478;-72
2022/03/05 04:59:07;;;;;;;19.63;10.33;;;;;;;-6.63;100.00;96752.44;5007850;28;20464;-72
2022/03/05 05:01:34;;;;;;;13.30;10.53;;;;;;;-6.66;100.00;96759.78;4991529;28;20890;-73
2022/03/05 05:04:02;;;;;;;15.50;10.80;;;;;;;-6.48;100.00;96765.00;4991470;28;20510;-74
2022/03/05 05:06:29;;;;;;;14.90;11.70;;;;;;;-6.58;100.00;96746.66;4992881;28;20482;-73
2022/03/05 05:08:56;;;;;;;17.40;10.87;;;;;;;-6.32;100.00;96784.28;4975310;28;20467;-72
2022/03/05 05:11:23;;;;;;;14.57;9.70;;;;;;;-6.44;100.00;96773.09;4992747;28;20433;-72
2022/03/05 05:13:50;;;;;;;14.27;11.23;;;;;;;-6.29;100.00;96783.88;4993901;28;20448;-73
2022/03/05 05:16:17;;;;;;;13.67;9.80;;;;;;;-6.27;100.00;96784.47;5007752;28;20494;-73
2022/03/05 05:19:24;;;;;;;12.40;9.30;;;;;;;-6.46;100.00;96742.44;4991291;28;20429;-73
2022/03/05 05:21:31;;;;;;;15.10;10.63;;;;;;;-6.22;100.00;96784.63;5007556;28;20475;-73
2022/03/05 05:23:58;;;;;;;17.40;12.33;;;;;;;-6.32;100.00;96756.78;4992526;28;20463;-73
2022/03/05 05:26:25;;;;;;;16.27;10.00;;;;;;;-6.36;100.00;96762.56;5007555;28;20503;-72
2022/03/05 05:28:52;;;;;;;13.17;10.63;;;;;;;-6.13;100.00;96790.31;5007329;28;20460;-72
2022/03/05 05:31:19;;;;;;;15.10;11.27;;;;;;;-6.19;100.00;96771.34;4992565;28;20431;-72
2022/03/05 05:33:46;;;;;;;17.97;12.13;;;;;;;-5.98;100.00;96789.00;5007420;28;20475;-72
2022/03/05 05:36:13;;;;;;;16.20;11.07;;;;;;;-6.14;100.00;96762.97;4991407;28;21021;-72
2022/03/05 05:38:41;;;;;;;16.10;10.53;;;;;;;-6.02;100.00;96777.53;5007427;28;20932;-73
2022/03/05 05:41:08;;;;;;;14.43;12.27;;;;;;;-5.96;100.00;96773.34;4992340;28;20442;-72
2022/03/05 05:43:35;;;;;;;12.80;11.30;;;;;;;-5.77;100.00;96789.59;5007439;28;20514;-72
2022/03/05 05:46:01;;;;;;;12.83;11.47;;;;;;;-5.73;100.00;96795.91;4991099;28;20510;-72
2022/03/05 05:48:48;;;;;;;19.43;13.93;;;;;;;-5.88;100.00;96782.53;5007467;28;20460;-72
2022/03/05 05:51:15;;;;;;;23.87;17.10;;;;;;;-5.72;100.00;96793.13;4974925;28;20445;-73
2022/03/05 05:53:42;;;;;;;21.97;15.27;;;;;;;-5.89;100.00;96791.28;5008962;28;20515;-73
2022/03/05 05:56:09;;;;;;;20.73;13.60;;;;;;;-5.98;100.00;96801.88;4995023;28;20445;-72
2022/03/05 05:58:36;;;;;;;23.53;15.30;;;;;;;-6.14;100.00;96765.56;4995023;28;20432;-73
2022/03/05 06:01:03;;;;;;;19.10;13.10;;;;;;;-6.16;100.00;96773.47;4995022;28;20444;-73
2022/03/05 06:03:30;;;;;;;19.30;14.33;;;;;;;-5.81;100.00;96796.94;5011291;28;20467;-73
2022/03/05 06:05:58;;;;;;;20.60;16.70;;;;;;;-5.77;100.00;96805.03;5010884;28;20479;-72
2022/03/05 06:08:25;;;;;;;18.13;12.97;;;;;;;-5.85;100.00;96800.16;4995823;28;20460;-72
2022/03/05 06:10:54;;;;;;;25.67;14.80;;;;;;;-5.71;100.00;96797.28;5010844;28;20475;-72
2022/03/05 06:13:21;;;;;;;19.83;16.40;;;;;;;-5.88;100.00;96775.63;4994469;28;20460;-72
2022/03/05 06:15:48;;;;;;;22.80;13.30;;;;;;;-5.68;100.00;96804.56;4994464;28;20436;-72
2022/03/05 06:18:14;;;;;;;16.80;13.37;;;;;;;-5.62;100.00;96802.13;4994514;28;20483;-72
2022/03/05 06:20:47;;;;;;;18.77;13.33;;;;;;;-5.59;100.00;96817.19;5010821;28;20526;-72
2022/03/05 06:23:14;;;;;;;18.30;14.17;;;;;;;-5.78;100.00;96793.16;4978135;28;20522;-72
2022/03/05 06:25:40;;;;;;;23.47;14.00;;;;;;;-5.91;100.00;96758.06;5010682;28;20447;-72
2022/03/05 06:28:07;;;;;;;15.27;13.33;;;;;;;-5.52;100.00;96799.88;4994306;28;20475;-72
2022/03/05 06:30:34;;;;;;;18.60;12.47;;;;;;;-5.52;100.00;96808.38;5010456;28;20463;-72
2022/03/05 06:33:01;;;;;;;19.50;12.33;;;;;;;-5.59;100.00;96791.44;4995418;28;20475;-72
2022/03/05 06:35:28;;;;;;;14.90;11.67;;;;;;;-5.70;100.00;96793.69;4995475;28;20434;-73
2022/03/05 06:37:55;;;;;;;14.60;12.70;;;;;;;-5.63;100.00;96811.66;4977805;28;20431;-73
2022/03/05 06:40:21;;;;;;;19.67;13.17;;;;;;;-5.67;100.00;96807.94;5009290;28;20467;-72
2022/03/05 06:42:48;;;;;;;16.27;12.80;;;;;;;-5.62;100.00;96799.56;4977743;28;20540;-72
2022/03/05 06:45:15;;;;;;;15.00;11.93;;;;;;;-5.48;100.00;96813.91;5010071;28;20792;-72
2022/03/05 06:47:42;;;;;;;20.57;14.97;;;;;;;-5.42;100.00;96818.22;5009986;28;20435;-73
2022/03/05 06:50:11;;;;;;;16.77;14.07;;;;;;;-5.44;100.00;96812.50;4993908;28;20522;-73
2022/03/05 06:52:38;;;;;;;18.43;12.83;;;;;;;-5.29;100.00;96823.25;5010768;28;20444;-73
2022/03/05 06:55:06;;;;;;;19.73;14.73;;;;;;;-5.38;100.00;96789.22;4994775;28;20485;-72
2022/03/05 06:57:32;;;;;;;17.43;14.17;;;;;;;-5.02;100.00;96821.19;4995460;28;20466;-72
2022/03/05 06:59:59;;;;;;;17.20;13.33;;;;;;;-5.08;100.00;96817.66;4994475;28;20441;-72
2022/03/05 07:02:26;;;;;;;21.30;13.93;;;;;;;-5.36;100.00;96789.00;4994465;28;20505;-72
2022/03/05 07:04:53;;;;;;;19.37;14.70;;;;;;;-5.13;100.00;96827.81;5009748;28;20539;-72
2022/03/05 07:07:20;;;;;;;19.93;14.10;;;;;;;-5.19;100.00;96828.69;5010453;28;20473;-72
2022/03/05 07:09:47;;;;;;;16.83;13.93;;;;;;;-5.00;100.00;96824.31;4994201;28;20472;-72
2022/03/05 07:12:13;;;;;;;18.30;14.40;;;;;;;-4.95;100.00;96824.47;4978196;28;20436;-72
2022/03/05 07:14:41;;;;;;;20.10;13.70;;;;;;;-4.87;100.00;96821.59;4995337;28;20454;-72
2022/03/05 07:17:08;;;;;;;23.40;16.10;;;;;;;-4.74;100.00;96832.78;5010261;28;20444;-72
2022/03/05 07:19:35;;;;;;;21.30;15.63;;;;;;;-4.68;100.00;96824.16;5010278;28;20424;-72
2022/03/05 07:22:03;;;;;;;23.70;16.07;;;;;;;-4.76;100.00;96830.41;5009957;28;20460;-72
2022/03/05 07:24:29;;;;;;;22.30;16.10;;;;;;;-4.74;100.00;96814.72;5010172;28;20967;-72
2022/03/05 07:26:56;;;;;;;26.30;18.67;;;;;;;-4.55;100.00;96836.88;5010075;28;20461;-73
2022/03/05 07:29:23;;;;;;;27.83;18.43;;;;;;;-4.48;100.00;96819.56;4993609;28;20516;-73
2022/03/05 07:31:50;;;;;;;23.03;17.37;;;;;;;-4.56;100.00;96806.94;5009693;28;20455;-73
2022/03/05 07:34:17;;;;;;;24.53;18.17;;;;;;;-4.27;100.00;96836.34;5009537;28;20516;-73
2022/03/05 07:36:44;;;;;;;25.83;18.00;;;;;;;-4.12;100.00;96834.16;4994826;28;20528;-73
2022/03/05 07:39:11;;;;;;;28.10;20.43;;;;;;;-4.09;100.00;96825.97;4994936;28;20933;-73
2022/03/05 07:41:38;;;;;;;23.43;17.67;;;;;;;-3.70;100.00;96839.31;5009802;28;20454;-73
2022/03/05 07:44:08;;;;;;;26.93;17.37;;;;;;;-3.59;100.00;96833.38;4993445;28;20465;-73
2022/03/05 07:46:38;;;;;;;19.77;17.20;;;;;;;-3.36;100.00;96837.75;5009701;28;20437;-73
2022/03/05 07:49:05;;;;;;;21.00;17.60;;;;;;;-3.28;100.00;96840.00;4993265;28;20518;-73
2022/03/05 07:51:33;;;;;;;27.67;15.97;;;;;;;-3.23;100.00;96849.66;5009863;28;20499;-73
2022/03/05 07:54:00;;;;;;;47.47;26.27;;;;;;;-3.15;100.00;96844.94;5009318;28;20461;-73
2022/03/05 07:56:27;;;;;;;43.90;27.90;;;;;;;-3.14;100.00;96841.34;4994492;28;20439;-73
2022/03/05 07:58:53;;;;;;;40.27;25.63;;;;;;;-3.28;100.00;96824.50;5009348;28;20487;-73
2022/03/05 08:01:20;;;;;;;36.67;23.60;;;;;;;-3.03;100.00;96840.53;4993224;28;20461;-73
2022/03/05 08:03:47;;;;;;;31.33;21.97;;;;;;;-2.92;100.00;96833.00;5008865;28;20465;-73
2022/03/05 08:06:14;;;;;;;33.83;22.23;;;;;;;-3.02;100.00;96820.66;4992822;28;20446;-73
2022/03/05 08:08:41;;;;;;;23.53;17.80;;;;;;;-2.72;100.00;96844.53;4994108;28;20433;-73
2022/03/05 08:11:08;;;;;;;25.47;18.00;;;;;;;-2.60;100.00;96841.91;4992692;28;20469;-72
2022/03/05 08:13:35;;;;;;;23.13;17.03;;;;;;;-2.24;100.00;96855.53;4992584;28;20547;-72
2022/03/05 08:16:02;;;;;;;21.10;18.03;;;;;;;-1.95;100.00;96858.91;4993950;28;20437;-72
2022/03/05 08:18:28;;;;;;;26.43;19.13;;;;;;;-1.98;100.00;96854.19;4993428;28;20434;-72
2022/03/05 08:20:55;;;;;;;27.60;19.80;;;;;;;-1.90;100.00;96857.19;4992731;28;20837;-71
2022/03/05 08:23:22;;;;;;;24.23;16.70;;;;;;;-1.92;100.00;96835.91;4992625;28;20874;-71
2022/03/05 08:25:48;;;;;;;23.10;16.23;;;;;;;-2.02;100.00;96827.16;5008926;28;20444;-71
2022/03/05 08:28:17;;;;;;;23.87;15.60;;;;;;;-1.75;100.00;96846.28;5009062;28;20867;-71
2022/03/05 08:30:44;;;;;;;28.00;19.30;;;;;;;-1.64;100.00;96829.09;5008754;28;20462;-71
2022/03/05 08:33:11;;;;;;;24.80;17.97;;;;;;;-1.61;100.00;96828.59;4992158;28;20504;-72
2022/03/05 08:35:38;;;;;;;23.63;18.40;;;;;;;-1.43;100.00;96859.50;5008665;28;20935;-72
2022/03/05 08:38:05;;;;;;;26.43;17.17;;;;;;;-1.56;100.00;96844.25;5008791;28;20436;-72
2022/03/05 08:40:32;;;;;;;24.20;16.50;;;;;;;-1.32;100.00;96850.84;5008821;28;20433;-72
2022/03/05 08:42:58;;;;;;;20.53;14.57;;;;;;;-1.03;100.00;96851.53;4992165;28;20445;-72
2022/03/05 08:45:28;;;;;;;17.93;14.20;;;;;;;-0.94;100.00;96855.25;4993629;28;20424;-71
2022/03/05 08:47:55;;;;;;;17.60;11.67;;;;;;;-0.89;100.00;96836.38;4993347;28;20425;-72
2022/03/05 08:50:21;;;;;;;18.27;13.20;;;;;;;-0.82;100.00;96856.97;4993292;28;20465;-72
2022/03/05 08:52:48;;;;;;;15.77;11.50;;;;;;;-0.86;100.00;96848.88;4991859;28;20846;-72
2022/03/05 08:55:18;;;;;;;17.30;11.97;;;;;;;-0.85;100.00;96816.72;5008335;28;20437;-72
2022/03/05 08:57:45;;;;;;;14.07;11.20;;;;;;;-0.36;100.00;96866.09;5008350;28;20436;-72
2022/03/05 09:00:14;;;;;;;16.93;11.80;;;;;;;-0.24;100.00;96868.56;4993355;28;20476;-72
2022/03/05 09:02:42;;;;;;;18.20;11.30;;;;;;;-0.37;100.00;96860.13;4993179;28;20445;-72
2022/03/05 09:05:09;;;;;;;17.33;12.77;;;;;;;-0.71;100.00;96825.72;4992076;28;20448;-72
2022/03/05 09:07:36;;;;;;;14.07;9.60;;;;;;;-0.57;100.00;96864.28;5008445;28;20433;-72
2022/03/05 09:10:03;;;;;;;17.53;12.50;;;;;;;-0.37;100.00;96865.31;4991687;28;20853;-72
2022/03/05 09:12:30;;;;;;;16.40;12.87;;;;;;;-0.15;100.00;96865.28;4993186;28;20863;-72
2022/03/05 09:14:57;;;;;;;17.00;12.00;;;;;;;-0.09;100.00;96840.94;5008025;28;20493;-73
2022/03/05 09:17:23;;;;;;;15.10;11.53;;;;;;;0.05;100.00;96845.75;4991827;28;20435;-73
2022/03/05 09:19:50;;;;;;;23.67;12.93;;;;;;;-0.02;100.00;96831.13;5008098;28;20477;-72
2022/03/05 09:22:17;;;;;;;18.50;12.40;;;;;;;0.08;100.00;96846.03;4991818;28;20428;-72
2022/03/05 09:24:44;;;;;;;16.50;11.67;;;;;;;0.15;100.00;96864.81;5007855;28;20510;-72
2022/03/05 09:27:11;;;;;;;14.93;11.17;;;;;;;0.12;100.00;96844.50;4993158;28;20432;-72
2022/03/05 09:29:38;;;;;;;14.47;11.20;;;;;;;0.24;100.00;96857.34;4994776;28;20497;-72
2022/03/05 09:32:09;;;;;;;16.37;11.40;;;;;;;0.43;100.00;96842.97;4995842;28;20447;-72
2022/03/05 09:34:37;;;;;;;17.13;10.20;;;;;;;0.52;100.00;96848.47;4997064;28;20976;-72
2022/03/05 09:37:04;;;;;;;13.60;10.47;;;;;;;0.82;100.00;96847.91;4997032;28;20450;-72
2022/03/05 09:39:31;;;;;;;12.77;11.00;;;;;;;0.62;100.00;96814.72;5012294;28;20475;-72
2022/03/05 09:41:58;;;;;;;15.57;10.70;;;;;;;0.83;100.00;96811.22;5011947;28;20471;-72
2022/03/05 09:44:25;;;;;;;15.90;11.37;;;;;;;0.92;100.00;96818.56;4995348;28;20530;-73
2022/03/05 09:46:52;;;;;;;16.77;13.33;;;;;;;1.06;100.00;96837.88;4995597;28;20441;-73
2022/03/05 09:49:19;;;;;;;18.27;10.60;;;;;;;1.25;100.00;96852.06;4995303;28;20508;-73
2022/03/05 09:51:45;;;;;;;16.73;11.20;;;;;;;0.86;100.00;96804.72;5011649;28;20467;-73
2022/03/05 09:54:12;;;;;;;15.73;11.50;;;;;;;1.16;100.00;96849.16;5011432;28;20455;-73
2022/03/05 09:56:39;;;;;;;18.13;10.80;;;;;;;1.12;100.00;96847.31;4995116;28;20453;-73
2022/03/05 09:59:07;;;;;;;15.80;11.40;;;;;;;1.15;100.00;96846.81;4995039;28;20438;-73
2022/03/05 10:01:35;;;;;;;15.70;11.40;;;;;;;1.55;100.00;96843.59;4995148;28;20429;-73
2022/03/05 10:04:02;;;;;;;19.70;12.63;;;;;;;1.39;100.00;96844.56;4994954;28;20465;-73
2022/03/05 10:06:29;;;;;;;14.90;10.30;;;;;;;1.31;100.00;96837.22;5011135;28;20437;-74
2022/03/05 10:08:57;;;;;;;16.33;12.00;;;;;;;1.12;100.00;96848.09;5011112;28;20435;-73
2022/03/05 10:11:25;;;;;;;14.80;10.10;;;;;;;0.71;100.00;96815.84;5011294;28;21068;-73
2022/03/05 10:13:52;;;;;;;17.97;12.00;;;;;;;0.97;100.00;96848.00;5010959;28;20515;-74
2022/03/05 10:16:24;;;;;;;15.10;10.53;;;;;;;0.87;100.00;96840.13;4995059;28;20432;-73
2022/03/05 10:18:54;;;;;;;17.90;12.80;;;;;;;0.98;100.00;96841.78;4996048;28;20523;-73
2022/03/05 10:21:32;;;;;;;17.93;11.27;;;;;;;1.07;100.00;96848.06;5010971;28;20798;-73
2022/03/05 10:24:07;;;;;;;12.90;9.20;;;;;;;1.12;100.00;96831.69;4995973;28;20452;-73
2022/03/05 10:26:55;;;;;;;18.83;11.40;;;;;;;1.11;100.00;96838.72;4995810;28;20880;-73
2022/03/05 10:29:34;;;;;;;14.73;10.33;;;;;;;1.05;100.00;96842.31;4994457;28;20434;-74
2022/03/05 10:32:07;;;;;;;17.10;10.90;;;;;;;1.00;100.00;96838.91;4998377;28;20495;-73
2022/03/05 10:34:48;;;;;;;13.67;9.10;;;;;;;1.03;100.00;96836.56;4994612;28;20463;-73
2022/03/05 10:37:15;;;;;;;11.70;8.30;;;;;;;1.08;100.00;96836.63;5010734;28;20537;-73
2022/03/05 10:39:43;;;;;;;10.27;8.43;;;;;;;1.16;100.00;96838.72;5009932;28;20859;-73
2022/03/05 10:42:27;;;;;;;12.13;9.23;;;;;;;1.02;100.00;96816.78;4995711;28;20433;-73
2022/03/05 10:45:05;;;;;;;17.83;8.57;;;;;;;1.28;100.00;96806.50;4994579;28;20572;-73
2022/03/05 10:47:39;;;;;;;10.13;7.00;;;;;;;1.52;100.00;96838.13;4978946;28;20931;-74
2022/03/05 10:50:14;;;;;;;10.23;7.90;;;;;;;1.62;100.00;96840.75;5011185;28;20552;-74
2022/03/05 10:52:49;;;;;;;7.83;7.00;;;;;;;1.63;100.00;96827.47;5011189;28;21007;-74
2022/03/05 10:55:21;;;;;;;7.67;6.83;;;;;;;1.61;100.00;96824.34;4995246;28;20448;-74
2022/03/05 10:57:58;;;;;;;12.17;7.43;;;;;;;1.63;100.00;96830.06;4996769;28;20859;-74
2022/03/05 11:00:25;;;;;;;7.00;6.30;;;;;;;1.52;100.00;96812.84;4994737;28;20996;-73
2022/03/05 11:02:52;;;;;;;9.70;7.70;;;;;;;1.67;100.00;96830.34;4995972;28;20444;-73
2022/03/05 11:05:20;;;;;;;12.00;6.97;;;;;;;1.41;100.00;96798.22;5011722;28;20888;-73
2022/03/05 11:07:52;;;;;;;10.70;7.40;;;;;;;1.56;100.00;96797.47;4994365;28;20863;-74
2022/03/05 11:10:22;;;;;;;12.40;7.63;;;;;;;1.27;100.00;96786.69;5011261;28;20457;-74
2022/03/05 11:12:52;;;;;;;8.77;6.20;;;;;;;1.36;100.00;96806.78;5010458;28;20445;-74
2022/03/05 11:15:19;;;;;;;6.90;5.70;;;;;;;1.27;89.34;96805.72;5010560;28;20447;-73
2022/03/05 11:17:48;;;;;;;9.40;6.97;;;;;;;1.30;90.94;96820.03;5010109;28;20441;-73